createdAt,value
2018-10-15T00:00:26.677Z,18.27
2018-10-15T00:02:54.219Z,19.13
2018-10-15T00:05:21.758Z,18.63
2018-10-15T00:07:49.398Z,19.77
2018-10-15T00:10:17.274Z,18.73
2018-10-15T00:12:44.844Z,18.50
2018-10-15T00:15:19.276Z,18.70
2018-10-15T00:17:47.165Z,18.60
2018-10-15T00:20:14.735Z,19.00
2018-10-15T00:22:42.209Z,19.17
2018-10-15T00:25:09.720Z,19.73
2018-10-15T00:27:37.239Z,19.53
2018-10-15T00:30:05.934Z,19.67
2018-10-15T00:32:33.448Z,19.70
2018-10-15T00:35:00.936Z,20.07
2018-10-15T00:37:28.381Z,19.57
2018-10-15T00:39:55.951Z,18.77
2018-10-15T00:42:23.523Z,20.77
2018-10-15T00:44:51.039Z,19.43
2018-10-15T00:47:18.609Z,18.40
2018-10-15T00:49:46.202Z,19.10
2018-10-15T00:52:13.759Z,18.73
2018-10-15T00:54:41.212Z,19.73
2018-10-15T00:57:08.779Z,19.20
2018-10-15T00:59:36.334Z,20.30
2018-10-15T01:02:04.044Z,20.40
2018-10-15T01:04:31.555Z,19.40
2018-10-15T01:06:59.070Z,20.93
2018-10-15T01:09:26.620Z,19.20
2018-10-15T01:11:54.230Z,21.00
2018-10-15T01:14:21.691Z,20.10
2018-10-15T01:16:49.219Z,20.37
2018-10-15T01:19:16.931Z,19.30
2018-10-15T01:21:44.464Z,19.80
2018-10-15T01:24:11.913Z,19.47
2018-10-15T01:26:41.459Z,19.87
2018-10-15T01:29:09.599Z,20.73
2018-10-15T01:31:37.245Z,18.33
2018-10-15T01:34:04.712Z,19.97
2018-10-15T01:36:32.167Z,19.20
2018-10-15T01:38:59.673Z,20.00
2018-10-15T01:41:27.300Z,20.17
2018-10-15T01:43:54.775Z,21.10
2018-10-15T01:46:22.579Z,21.27
2018-10-15T01:48:50.086Z,21.60
2018-10-15T01:51:17.571Z,20.87
2018-10-15T01:53:45.101Z,21.47
2018-10-15T01:56:12.798Z,19.60
2018-10-15T01:58:40.660Z,19.23
2018-10-15T02:01:08.321Z,20.20
2018-10-15T02:03:35.843Z,20.90
2018-10-15T02:06:03.355Z,21.37
2018-10-15T02:08:30.862Z,20.47
2018-10-15T02:10:58.343Z,20.30
2018-10-15T02:13:25.839Z,21.47
2018-10-15T02:15:53.283Z,20.43
2018-10-15T02:18:20.789Z,19.90
2018-10-15T02:20:48.227Z,21.40
2018-10-15T02:23:15.719Z,22.17
2018-10-15T02:25:43.251Z,20.93
2018-10-15T02:28:10.750Z,21.77
2018-10-15T02:30:38.323Z,21.10
2018-10-15T02:33:05.780Z,20.10
2018-10-15T02:35:33.238Z,20.87
2018-10-15T02:38:00.742Z,21.67
2018-10-15T02:40:28.228Z,21.50
2018-10-15T02:42:55.661Z,25.07
2018-10-15T02:45:23.152Z,21.70
2018-10-15T02:47:50.631Z,20.83
2018-10-15T02:50:18.163Z,21.33
2018-10-15T02:52:45.733Z,20.67
2018-10-15T02:55:13.276Z,20.83
2018-10-15T02:57:40.766Z,19.97
2018-10-15T03:00:11.097Z,21.47
2018-10-15T03:02:38.698Z,19.60
2018-10-15T03:05:07.318Z,21.07
2018-10-15T03:07:34.965Z,20.10
2018-10-15T03:10:02.707Z,21.50
2018-10-15T03:12:30.309Z,21.03
2018-10-15T03:14:57.883Z,21.50
2018-10-15T03:17:25.397Z,22.10
2018-10-15T03:19:52.935Z,21.60
2018-10-15T03:22:20.488Z,23.20
2018-10-15T03:24:48.158Z,20.37
2018-10-15T03:27:15.577Z,21.53
2018-10-15T03:29:43.064Z,21.60
2018-10-15T03:32:10.534Z,21.37
2018-10-15T03:34:38.342Z,20.67
2018-10-15T03:37:06.546Z,21.90
2018-10-15T03:39:34.068Z,21.17
2018-10-15T03:42:01.560Z,22.27
2018-10-15T03:44:29.078Z,21.67
2018-10-15T03:46:56.535Z,20.80
2018-10-15T03:49:24.063Z,21.20
2018-10-15T03:51:51.565Z,20.73
2018-10-15T03:54:19.004Z,20.27
2018-10-15T03:56:46.506Z,20.30
2018-10-15T03:59:13.947Z,21.50
2018-10-15T04:01:41.439Z,21.63
2018-10-15T04:04:08.906Z,21.67
2018-10-15T04:06:36.420Z,21.47
2018-10-15T04:09:07.127Z,20.60
2018-10-15T04:11:34.626Z,20.90
2018-10-15T04:14:02.690Z,21.60
2018-10-15T04:16:30.217Z,22.30
2018-10-15T04:18:57.788Z,21.63
2018-10-15T04:21:25.404Z,22.73
2018-10-15T04:23:52.914Z,22.20
2018-10-15T04:26:20.452Z,22.03
2018-10-15T04:28:47.909Z,21.10
2018-10-15T04:31:15.543Z,22.30
2018-10-15T04:33:43.064Z,22.07
2018-10-15T04:36:10.554Z,21.20
2018-10-15T04:38:38.114Z,20.87
2018-10-15T04:41:05.651Z,20.80
2018-10-15T04:43:33.120Z,21.70
2018-10-15T04:46:00.558Z,21.93
2018-10-15T04:48:28.118Z,20.70
2018-10-15T04:50:55.600Z,22.20
2018-10-15T04:53:23.088Z,22.40
2018-10-15T04:55:50.589Z,22.40
2018-10-15T04:58:18.126Z,22.50
2018-10-15T05:00:45.633Z,21.40
2018-10-15T05:03:13.162Z,23.47
2018-10-15T05:05:47.000Z,22.40
2018-10-15T05:08:14.559Z,21.80
2018-10-15T05:10:42.118Z,22.40
2018-10-15T05:13:09.695Z,21.93
2018-10-15T05:15:37.168Z,21.00
2018-10-15T05:18:04.832Z,21.23
2018-10-15T05:20:32.457Z,20.30
2018-10-15T05:22:59.894Z,20.87
2018-10-15T05:25:27.392Z,22.40
2018-10-15T05:27:54.847Z,21.17
2018-10-15T05:30:22.472Z,20.87
2018-10-15T05:32:49.947Z,21.00
2018-10-15T05:35:17.414Z,20.43
2018-10-15T05:37:44.965Z,20.50
2018-10-15T05:40:12.460Z,21.57
2018-10-15T05:42:39.983Z,20.03
2018-10-15T05:45:08.895Z,20.53
2018-10-15T05:47:36.654Z,20.73
2018-10-15T05:50:04.996Z,20.47
2018-10-15T05:52:32.441Z,19.17
2018-10-15T05:54:59.922Z,20.13
2018-10-15T05:57:28.015Z,20.07
2018-10-15T05:59:55.557Z,20.23
2018-10-15T06:02:23.041Z,20.93
2018-10-15T06:04:50.526Z,19.20
2018-10-15T06:07:17.987Z,19.20
2018-10-15T06:09:45.561Z,20.40
2018-10-15T06:12:13.095Z,20.77
2018-10-15T06:14:40.548Z,20.57
2018-10-15T06:17:08.005Z,19.60
2018-10-15T06:19:35.503Z,20.23
2018-10-15T06:22:03.813Z,18.50
2018-10-15T06:24:31.334Z,19.20
2018-10-15T06:26:58.819Z,19.87
2018-10-15T06:29:26.293Z,20.07
2018-10-15T06:31:53.833Z,19.77
2018-10-15T06:34:21.304Z,20.30
2018-10-15T06:36:48.772Z,20.27
2018-10-15T06:39:16.289Z,20.43
2018-10-15T06:41:43.726Z,19.17
2018-10-15T06:44:11.353Z,18.40
2018-10-15T06:46:38.983Z,18.40
2018-10-15T06:49:06.524Z,18.43
2018-10-15T06:51:34.043Z,18.37
2018-10-15T06:54:01.702Z,18.10
2018-10-15T06:56:29.425Z,17.60
2018-10-15T06:58:57.035Z,18.63
2018-10-15T07:01:24.560Z,17.70
2018-10-15T07:03:52.040Z,17.93
2018-10-15T07:06:19.581Z,16.87
2018-10-15T07:08:47.305Z,17.53
2018-10-15T07:11:20.699Z,18.37
2018-10-15T07:13:48.243Z,17.73
2018-10-15T07:16:15.747Z,17.33
2018-10-15T07:18:43.263Z,18.07
2018-10-15T07:21:10.767Z,18.13
2018-10-15T07:23:38.284Z,17.80
2018-10-15T07:26:05.786Z,18.87
2018-10-15T07:28:33.446Z,18.53
2018-10-15T07:31:00.958Z,17.50
2018-10-15T07:33:28.463Z,16.37
2018-10-15T07:35:55.951Z,17.30
2018-10-15T07:38:23.524Z,17.27
2018-10-15T07:40:51.061Z,17.40
2018-10-15T07:43:18.551Z,16.47
2018-10-15T07:45:46.040Z,17.40
2018-10-15T07:48:13.599Z,17.07
2018-10-15T07:50:41.153Z,16.50
2018-10-15T07:53:08.654Z,17.30
2018-10-15T07:55:36.276Z,17.40
2018-10-15T07:58:03.789Z,17.63
2018-10-15T08:00:31.349Z,16.67
2018-10-15T08:02:58.735Z,17.37
2018-10-15T08:05:26.778Z,18.57
2018-10-15T08:07:54.231Z,17.13
2018-10-15T08:10:21.814Z,17.60
2018-10-15T08:12:49.493Z,16.27
2018-10-15T08:15:17.995Z,16.60
2018-10-15T08:17:45.845Z,16.97
2018-10-15T08:20:14.671Z,17.13
2018-10-15T08:22:43.127Z,17.67
2018-10-15T08:25:10.654Z,16.40
2018-10-15T08:27:38.977Z,16.23
2018-10-15T08:30:11.867Z,15.13
2018-10-15T08:32:39.519Z,16.50
2018-10-15T08:35:07.232Z,16.17
2018-10-15T08:37:34.907Z,17.23
2018-10-15T08:40:02.666Z,15.67
2018-10-15T08:42:30.122Z,15.93
2018-10-15T08:44:57.716Z,16.33
2018-10-15T08:47:25.224Z,17.10
2018-10-15T08:49:52.813Z,17.83
2018-10-15T08:52:20.461Z,16.60
2018-10-15T08:54:47.862Z,16.10
2018-10-15T08:57:15.484Z,15.27
2018-10-15T08:59:43.059Z,15.10
2018-10-15T09:02:10.559Z,15.30
2018-10-15T09:04:38.008Z,15.37
2018-10-15T09:07:06.114Z,16.53
2018-10-15T09:09:33.533Z,16.43
2018-10-15T09:12:01.039Z,15.47
2018-10-15T09:14:28.550Z,15.60
2018-10-15T09:16:56.073Z,15.97
2018-10-15T09:19:23.723Z,15.27
2018-10-15T09:21:51.532Z,14.83
2018-10-15T09:24:19.355Z,15.20
2018-10-15T09:26:46.916Z,14.73
2018-10-15T09:29:14.471Z,13.90
2018-10-15T09:31:42.033Z,15.30
2018-10-15T09:34:09.642Z,14.97
2018-10-15T09:36:37.147Z,16.80
2018-10-15T09:39:08.130Z,14.47
2018-10-15T09:41:35.670Z,14.30
2018-10-15T09:44:03.273Z,14.03
2018-10-15T09:46:30.696Z,15.17
2018-10-15T09:48:58.267Z,14.00
2018-10-15T09:51:25.800Z,15.07
2018-10-15T09:53:53.266Z,14.10
2018-10-15T09:56:20.768Z,15.27
2018-10-15T09:58:48.277Z,14.97
2018-10-15T10:01:21.567Z,16.33
2018-10-15T10:03:49.006Z,14.73
2018-10-15T10:06:16.647Z,15.40
2018-10-15T10:08:44.043Z,15.13
2018-10-15T10:11:11.564Z,16.23
2018-10-15T10:13:39.030Z,15.40
2018-10-15T10:16:06.649Z,14.77
2018-10-15T10:18:34.251Z,14.70
2018-10-15T10:21:01.747Z,16.80
2018-10-15T10:23:29.158Z,16.20
2018-10-15T10:25:56.670Z,14.27
2018-10-15T10:28:24.263Z,15.57
2018-10-15T10:30:51.807Z,15.20
2018-10-15T10:33:19.302Z,14.53
2018-10-15T10:36:06.797Z,13.90
2018-10-15T10:38:47.788Z,15.17
2018-10-15T10:41:15.287Z,13.03
2018-10-15T10:43:42.767Z,14.33
2018-10-15T10:46:10.461Z,12.63
2018-10-15T10:48:37.823Z,14.30
2018-10-15T10:51:05.396Z,12.97
2018-10-15T10:53:32.956Z,14.33
2018-10-15T10:56:00.443Z,13.83
2018-10-15T10:58:27.931Z,12.73
2018-10-15T11:00:55.510Z,13.50
2018-10-15T11:03:23.044Z,14.13
2018-10-15T11:05:50.939Z,13.87
2018-10-15T11:08:18.866Z,13.13
2018-10-15T11:10:46.328Z,14.10
2018-10-15T11:13:13.842Z,12.90
2018-10-15T11:15:41.320Z,12.83
2018-10-15T11:18:08.825Z,13.63
2018-10-15T11:20:36.737Z,13.33
2018-10-15T11:23:04.555Z,13.53
2018-10-15T11:25:32.011Z,13.43
2018-10-15T11:28:00.731Z,13.67
2018-10-15T11:30:28.201Z,12.77
2018-10-15T11:32:56.459Z,12.87
2018-10-15T11:35:23.902Z,12.27
2018-10-15T11:37:51.380Z,12.57
2018-10-15T11:40:18.834Z,11.90
2018-10-15T11:42:46.318Z,11.97
2018-10-15T11:45:13.794Z,12.20
2018-10-15T11:47:41.291Z,11.90
2018-10-15T11:50:08.836Z,12.87
2018-10-15T11:52:36.312Z,12.60
2018-10-15T11:55:04.139Z,12.37
2018-10-15T11:57:31.619Z,12.57
2018-10-15T11:59:59.071Z,12.37
2018-10-15T12:02:26.600Z,13.30
2018-10-15T12:04:54.071Z,12.63
2018-10-15T12:07:21.610Z,13.03
2018-10-15T12:09:49.136Z,13.37
2018-10-15T12:12:16.659Z,12.20
2018-10-15T12:14:44.108Z,12.77
2018-10-15T12:17:11.603Z,12.17
2018-10-15T12:19:39.059Z,13.40
2018-10-15T12:22:06.571Z,12.10
2018-10-15T12:24:34.023Z,11.63
2018-10-15T12:27:01.571Z,11.70
2018-10-15T12:29:29.301Z,12.87
2018-10-15T12:31:56.816Z,11.60
2018-10-15T12:34:24.328Z,13.00
2018-10-15T12:36:51.788Z,12.27
2018-10-15T12:39:19.324Z,12.50
2018-10-15T12:41:46.826Z,12.10
2018-10-15T12:44:14.324Z,12.07
2018-10-15T12:46:41.775Z,12.70
2018-10-15T12:49:09.284Z,13.03
2018-10-15T12:51:36.821Z,11.87
2018-10-15T12:54:04.553Z,10.73
2018-10-15T12:56:32.078Z,11.50
2018-10-15T12:58:59.582Z,11.07
2018-10-15T13:01:27.079Z,10.90
2018-10-15T13:03:54.606Z,11.30
2018-10-15T13:06:22.179Z,10.97
2018-10-15T13:08:50.263Z,11.30
2018-10-15T13:11:18.075Z,11.03
2018-10-15T13:13:45.915Z,11.47
2018-10-15T13:16:13.538Z,10.77
2018-10-15T13:18:41.048Z,11.00
2018-10-15T13:21:10.684Z,11.00
2018-10-15T13:23:38.176Z,9.97
2018-10-15T13:26:06.025Z,9.77
2018-10-15T13:28:33.748Z,10.00
2018-10-15T13:31:01.467Z,9.97
2018-10-15T13:33:29.016Z,10.20
2018-10-15T13:35:56.562Z,9.70
2018-10-15T13:38:24.038Z,9.50
2018-10-15T13:40:51.500Z,10.37
2018-10-15T13:43:19.008Z,11.00
2018-10-15T13:45:46.512Z,9.80
2018-10-15T13:48:14.007Z,9.73
2018-10-15T13:50:41.536Z,9.63
2018-10-15T13:53:09.018Z,9.57
2018-10-15T13:55:36.440Z,10.87
2018-10-15T13:58:04.040Z,10.40
2018-10-15T14:00:34.412Z,10.23
2018-10-15T14:03:01.939Z,10.30
2018-10-15T14:05:29.488Z,10.50
2018-10-15T14:07:57.047Z,10.60
2018-10-15T14:10:24.509Z,9.87
2018-10-15T14:12:52.572Z,10.90
2018-10-15T14:15:20.052Z,10.53
2018-10-15T14:17:47.583Z,9.90
2018-10-15T14:20:15.056Z,9.67
2018-10-15T14:22:43.528Z,10.73
2018-10-15T14:25:12.058Z,10.00
2018-10-15T14:27:39.877Z,10.30
2018-10-15T14:30:09.326Z,10.70
2018-10-15T14:32:37.044Z,10.97
2018-10-15T14:35:04.711Z,9.60
2018-10-15T14:37:32.205Z,11.73
2018-10-15T14:39:59.833Z,9.83
2018-10-15T14:42:27.304Z,10.00
2018-10-15T14:44:54.831Z,10.07
2018-10-15T14:47:22.402Z,10.00
2018-10-15T14:49:51.232Z,10.47
2018-10-15T14:52:18.924Z,10.03
2018-10-15T14:54:46.517Z,10.57
2018-10-15T14:57:14.083Z,10.40
2018-10-15T14:59:41.673Z,10.87
2018-10-15T15:02:09.354Z,11.67
2018-10-15T15:04:36.983Z,11.13
2018-10-15T15:07:04.682Z,11.43
2018-10-15T15:09:43.840Z,10.87
2018-10-15T15:12:22.904Z,10.93
2018-10-15T15:14:50.430Z,10.30
2018-10-15T15:17:17.908Z,10.93
2018-10-15T15:19:45.442Z,9.90
2018-10-15T15:22:13.003Z,11.10
2018-10-15T15:24:40.464Z,9.97
2018-10-15T15:27:07.970Z,10.77
2018-10-15T15:29:35.455Z,10.57
2018-10-15T15:32:03.004Z,10.10
2018-10-15T15:34:30.545Z,10.90
2018-10-15T15:36:58.080Z,10.30
2018-10-15T15:39:25.734Z,10.30
2018-10-15T15:41:53.128Z,11.07
2018-10-15T15:44:20.676Z,11.60
2018-10-15T15:46:48.203Z,11.27
2018-10-15T15:49:15.794Z,11.20
2018-10-15T15:51:43.360Z,11.20
2018-10-15T15:54:10.836Z,11.43
2018-10-15T15:56:38.347Z,12.80
2018-10-15T15:59:05.844Z,10.80
2018-10-15T16:01:33.470Z,11.97
2018-10-15T16:04:00.940Z,11.97
2018-10-15T16:06:28.423Z,12.27
2018-10-15T16:08:55.934Z,11.93
2018-10-15T16:11:23.464Z,13.47
2018-10-15T16:13:50.939Z,13.27
2018-10-15T16:16:18.451Z,11.63
2018-10-15T16:18:45.935Z,12.40
2018-10-15T16:21:13.391Z,11.70
2018-10-15T16:23:41.008Z,12.07
2018-10-15T16:26:08.548Z,11.80
2018-10-15T16:28:36.041Z,11.73
2018-10-15T16:31:03.688Z,12.00
2018-10-15T16:33:31.249Z,13.03
2018-10-15T16:35:58.852Z,11.37
2018-10-15T16:38:26.365Z,11.90
2018-10-15T16:40:53.895Z,11.63
2018-10-15T16:43:21.399Z,11.43
2018-10-15T16:45:48.906Z,11.90
2018-10-15T16:48:16.499Z,13.13
2018-10-15T16:50:43.971Z,12.60
2018-10-15T16:53:11.490Z,12.53
2018-10-15T16:55:38.970Z,11.93
2018-10-15T16:58:06.472Z,11.70
2018-10-15T17:00:33.987Z,12.17
2018-10-15T17:03:01.518Z,11.63
2018-10-15T17:05:29.008Z,11.87
2018-10-15T17:07:56.518Z,12.47
2018-10-15T17:10:23.979Z,12.37
2018-10-15T17:12:51.519Z,11.43
2018-10-15T17:15:19.016Z,12.40
2018-10-15T17:17:46.515Z,12.80
2018-10-15T17:20:13.983Z,12.10
2018-10-15T17:22:42.487Z,11.63
2018-10-15T17:25:10.694Z,11.53
2018-10-15T17:27:38.263Z,12.53
2018-10-15T17:30:06.928Z,12.30
2018-10-15T17:32:34.410Z,12.43
2018-10-15T17:35:01.925Z,12.00
2018-10-15T17:37:29.550Z,11.13
2018-10-15T17:39:57.090Z,13.13
2018-10-15T17:42:24.768Z,14.10
2018-10-15T17:44:52.303Z,12.03
2018-10-15T17:47:19.760Z,12.40
2018-10-15T17:49:47.320Z,12.10
2018-10-15T17:52:14.883Z,11.63
2018-10-15T17:54:42.424Z,11.37
2018-10-15T17:57:09.998Z,11.43
2018-10-15T17:59:37.488Z,11.60
2018-10-15T18:02:05.628Z,11.10
2018-10-15T18:04:33.108Z,12.00
2018-10-15T18:07:00.747Z,11.43
2018-10-15T18:09:28.198Z,11.53
2018-10-15T18:11:55.822Z,11.50
2018-10-15T18:14:23.262Z,11.27
2018-10-15T18:16:50.765Z,11.40
2018-10-15T18:19:18.441Z,12.13
2018-10-15T18:21:45.947Z,11.97
2018-10-15T18:24:13.441Z,11.70
2018-10-15T18:26:40.984Z,11.13
2018-10-15T18:29:08.575Z,10.83
2018-10-15T18:31:36.849Z,11.90
2018-10-15T18:34:04.712Z,12.70
2018-10-15T18:36:32.188Z,12.47
2018-10-15T18:38:59.716Z,11.33
2018-10-15T18:41:27.207Z,12.70
2018-10-15T18:43:54.721Z,12.70
2018-10-15T18:46:22.216Z,12.07
2018-10-15T18:48:49.699Z,12.50
2018-10-15T18:51:17.244Z,16.73
2018-10-15T18:53:44.796Z,11.97
2018-10-15T18:56:12.468Z,12.73
2018-10-15T18:58:40.002Z,13.90
2018-10-15T19:01:07.666Z,11.93
2018-10-15T19:03:35.384Z,11.83
2018-10-15T19:06:02.884Z,12.60
2018-10-15T19:08:30.379Z,12.53
2018-10-15T19:10:58.930Z,12.30
2018-10-15T19:13:27.405Z,12.70
2018-10-15T19:15:55.892Z,12.80
2018-10-15T19:18:23.416Z,12.17
2018-10-15T19:20:50.900Z,12.67
2018-10-15T19:23:18.675Z,11.90
2018-10-15T19:25:46.524Z,12.30
2018-10-15T19:28:14.098Z,13.83
2018-10-15T19:30:41.855Z,12.60
2018-10-15T19:33:09.612Z,12.87
2018-10-15T19:35:37.593Z,12.87
2018-10-15T19:38:05.143Z,12.17
2018-10-15T19:40:33.095Z,13.20
2018-10-15T19:43:00.841Z,12.03
2018-10-15T19:45:28.487Z,11.83
2018-10-15T19:47:56.179Z,12.13
2018-10-15T19:50:23.657Z,12.30
2018-10-15T19:52:51.978Z,13.53
2018-10-15T19:55:19.891Z,12.20
2018-10-15T19:57:47.368Z,12.00
2018-10-15T20:00:16.550Z,12.83
2018-10-15T20:02:45.236Z,11.37
2018-10-15T20:05:13.332Z,12.23
2018-10-15T20:07:40.974Z,12.80
2018-10-15T20:10:11.287Z,13.17
2018-10-15T20:12:39.577Z,12.23
2018-10-15T20:15:08.123Z,11.70
2018-10-15T20:17:36.231Z,12.57
2018-10-15T20:20:04.202Z,12.80
2018-10-15T20:22:31.995Z,12.27
2018-10-15T20:24:59.501Z,12.13
2018-10-15T20:27:26.979Z,12.23
2018-10-15T20:29:54.452Z,12.53
2018-10-15T20:32:21.929Z,12.30
2018-10-15T20:34:49.471Z,12.47
2018-10-15T20:37:16.994Z,12.03
2018-10-15T20:39:44.651Z,11.57
2018-10-15T20:42:12.196Z,12.90
2018-10-15T20:44:39.678Z,13.57
2018-10-15T20:47:07.160Z,12.10
2018-10-15T20:49:34.651Z,12.53
2018-10-15T20:52:02.162Z,12.00
2018-10-15T20:54:29.675Z,13.10
2018-10-15T20:56:57.117Z,12.30
2018-10-15T20:59:25.557Z,12.13
2018-10-15T21:01:53.335Z,12.60
2018-10-15T21:04:21.476Z,12.13
2018-10-15T21:06:49.410Z,13.00
2018-10-15T21:09:17.051Z,12.70
2018-10-15T21:11:44.668Z,13.20
2018-10-15T21:14:12.227Z,12.93
2018-10-15T21:16:39.927Z,13.93
2018-10-15T21:19:08.511Z,12.40
2018-10-15T21:21:36.476Z,12.40
2018-10-15T21:24:04.366Z,12.37
2018-10-15T21:26:32.106Z,12.57
2018-10-15T21:29:00.130Z,12.67
2018-10-15T21:31:28.561Z,12.60
2018-10-15T21:33:56.046Z,13.90
2018-10-15T21:36:23.624Z,12.53
2018-10-15T21:38:51.543Z,12.33
2018-10-15T21:41:19.109Z,20.33
2018-10-15T21:43:46.720Z,13.10
2018-10-15T21:46:14.348Z,12.93
2018-10-15T21:48:41.865Z,14.83
2018-10-15T21:51:09.577Z,13.03
2018-10-15T21:53:37.934Z,14.80
2018-10-15T21:56:05.484Z,14.20
2018-10-15T21:58:33.023Z,13.87
2018-10-15T22:01:04.890Z,14.17
2018-10-15T22:03:32.406Z,14.03
2018-10-15T22:06:00.065Z,13.23
2018-10-15T22:08:27.531Z,12.87
2018-10-15T22:10:55.049Z,13.83
2018-10-15T22:13:22.520Z,12.97
2018-10-15T22:15:50.002Z,15.17
2018-10-15T22:18:17.471Z,13.90
2018-10-15T22:20:44.991Z,14.00
2018-10-15T22:23:12.760Z,14.67
2018-10-15T22:25:40.298Z,14.17
2018-10-15T22:28:07.966Z,14.60
2018-10-15T22:30:35.628Z,15.20
2018-10-15T22:33:03.132Z,13.00
2018-10-15T22:35:30.833Z,14.10
2018-10-15T22:37:58.318Z,14.00
2018-10-15T22:40:25.847Z,14.03
2018-10-15T22:42:53.424Z,14.03
2018-10-15T22:45:20.883Z,13.90
2018-10-15T22:47:48.376Z,14.00
2018-10-15T22:50:15.900Z,12.83
2018-10-15T22:52:43.397Z,13.40
2018-10-15T22:55:10.937Z,13.30
2018-10-15T22:57:38.418Z,14.43
2018-10-15T23:00:13.273Z,13.10
2018-10-15T23:02:40.771Z,13.70
2018-10-15T23:05:08.286Z,12.97
2018-10-15T23:07:35.836Z,13.50
2018-10-15T23:10:03.500Z,14.70
2018-10-15T23:12:30.995Z,13.97
2018-10-15T23:14:58.506Z,13.17
2018-10-15T23:17:26.011Z,14.63
2018-10-15T23:19:53.571Z,14.67
2018-10-15T23:22:21.137Z,12.87
2018-10-15T23:24:48.704Z,16.80
2018-10-15T23:27:16.212Z,15.23
2018-10-15T23:29:43.724Z,15.97
2018-10-15T23:32:11.208Z,16.67
2018-10-15T23:34:38.789Z,15.40
2018-10-15T23:37:06.301Z,14.77
2018-10-15T23:39:33.824Z,15.60
2018-10-15T23:42:01.319Z,14.70
2018-10-15T23:44:28.854Z,15.57
2018-10-15T23:46:56.379Z,14.67
2018-10-15T23:49:23.871Z,14.47
2018-10-15T23:51:51.374Z,15.37
2018-10-15T23:54:18.890Z,15.60
2018-10-15T23:56:46.516Z,14.00
2018-10-15T23:59:14.075Z,15.70
